Terminal Aerodrome Forecast
Issued by NWS

Home | Current Version | Previous Version | Text Only | Print | Product List | Glossary On
Versions: 1 2 3 4 5 6 7 8 9 10 11 12 13 14 15 16 17
000
FTUS45 KFGZ 262300
TAFGCN
TAF
KGCN 262326Z 2700/2724 06011KT P6SM BKN220
     FM270400 VRB03KT P6SM BKN045 OVC060
     FM270800 VRB05KT 6SM -SHRA BKN020 OVC035
     FM271800 23007KT P6SM OVC020=

USA.gov is the U.S. government's official web portal to all federal, state and local government web resources and services.